Hauptseite
METAR-TAF:

METAR-TAF

Flughäfen :

Heritage Field Airport

Pottstown, Pennsylvania, Vereinigte Staaten

Breite: 40-14-18N, Länge: 075-33-26W, Höhe: 89 m

Beobachtung

Neuester Wetterbericht von vor 27 Minuten, um 06:24 UTC
Windstille
Temperatur 7°C
Luftfeuchtigkeit 100%
Luftdruck 1013 hPa
Sichtweite: 4.0 km
Geschlossene Wolkendecke in der Höhe von 300 ft
feuchter Dunst

METAR: KPTW 260624Z AUTO 00000KT 2 1/2SM BR OVC003 07/07 A2990 RMK AO2 T00670067

Zeit: 01:51 (06:51 UTC)


TAF: fehlend

Wetterbeobachtungen und Prognosen von mehr als 4000 Flughäfen (METAR und TAF Bericht).

Die verfügbaren Stationen werden durch gelbe und rote Markierungen auf der Karte dargestellt.

Führen Sie die Maus auf sie, um den Namen der Station zu sehen.

Darauf klicken, um die Beobachtung von Wetterbeobachtungen und Prognosen zu sehen.

Um die Karte zu ändern : klicken Sie auf den grünen Tasten mit einem schwarzen Kreuz Zum Vergrößern, auf den grünen Button mit einem Gedankenstrich zu verkleinern, oder auf die grünen Pfeile für benachbarte Karten.


METAR-TAF: